createdAt,value
2023-02-24T00:00:32.737Z,66.30
2023-02-24T00:03:11.163Z,66.50
2023-02-24T00:05:44.633Z,66.44
2023-02-24T00:08:12.740Z,65.50
2023-02-24T00:10:40.760Z,66.19
2023-02-24T00:13:08.913Z,66.05
2023-02-24T00:15:36.881Z,64.93
2023-02-24T00:18:07.249Z,65.31
2023-02-24T00:20:36.773Z,65.35
2023-02-24T00:23:04.844Z,65.25
2023-02-24T00:25:32.758Z,65.36
2023-02-24T00:28:01.840Z,66.21
2023-02-24T00:30:33.107Z,65.87
2023-02-24T00:33:03.755Z,66.07
2023-02-24T00:35:33.405Z,65.69
2023-02-24T00:38:01.542Z,66.16
2023-02-24T00:40:30.672Z,65.30
2023-02-24T00:42:59.241Z,65.89
2023-02-24T00:45:30.976Z,65.44
2023-02-24T00:47:59.625Z,65.54
2023-02-24T00:50:27.591Z,65.21
2023-02-24T00:52:57.314Z,65.91
2023-02-24T00:55:27.864Z,64.98
2023-02-24T00:57:56.298Z,64.52
2023-02-24T01:00:25.899Z,63.75
2023-02-24T01:02:53.873Z,63.12
2023-02-24T01:05:21.881Z,63.64
2023-02-24T01:07:50.006Z,62.75
2023-02-24T01:10:20.908Z,62.45
2023-02-24T01:12:54.019Z,63.17
2023-02-24T01:15:24.361Z,63.11
2023-02-24T01:17:52.357Z,63.51
2023-02-24T01:20:20.609Z,64.48
2023-02-24T01:22:50.499Z,63.73
2023-02-24T01:25:20.795Z,64.38
2023-02-24T01:27:49.177Z,63.96
2023-02-24T01:30:18.619Z,64.07
2023-02-24T01:32:48.291Z,63.12
2023-02-24T01:35:17.790Z,62.90
2023-02-24T01:37:46.448Z,62.98
2023-02-24T01:40:20.833Z,64.39
2023-02-24T01:42:51.205Z,63.79
2023-02-24T01:45:26.013Z,63.70
2023-02-24T01:47:55.886Z,63.68
2023-02-24T01:50:26.878Z,63.42
2023-02-24T01:52:58.940Z,63.95
2023-02-24T01:55:32.186Z,63.91
2023-02-24T01:58:05.289Z,64.34
2023-02-24T02:00:45.135Z,64.12
2023-02-24T02:03:25.334Z,63.69
2023-02-24T02:05:59.030Z,64.51
2023-02-24T02:08:28.148Z,63.55
2023-02-24T02:11:00.407Z,64.14
2023-02-24T02:13:35.721Z,63.88
2023-02-24T02:16:26.369Z,63.79
2023-02-24T02:19:03.626Z,64.25
2023-02-24T02:21:58.896Z,65.11
2023-02-24T02:24:43.602Z,64.35
2023-02-24T02:27:30.308Z,64.07
2023-02-24T02:30:35.123Z,64.54
2023-02-24T02:33:40.086Z,63.93
2023-02-24T02:36:14.992Z,64.94
2023-02-24T02:38:57.806Z,64.78
2023-02-24T02:41:38.386Z,64.40
2023-02-24T02:44:20.625Z,64.47
2023-02-24T02:46:54.013Z,65.06
2023-02-24T02:49:32.542Z,64.95
2023-02-24T02:52:20.993Z,65.81
2023-02-24T02:54:55.257Z,65.16
2023-02-24T02:57:32.089Z,64.79
2023-02-24T03:00:11.640Z,65.14
2023-02-24T03:02:50.504Z,63.89
2023-02-24T03:05:29.837Z,65.07
2023-02-24T03:08:01.198Z,64.73
2023-02-24T03:10:34.466Z,64.58
2023-02-24T03:13:13.392Z,64.56
2023-02-24T03:15:47.623Z,63.88
2023-02-24T03:18:29.111Z,64.08
2023-02-24T03:21:07.768Z,64.10
2023-02-24T03:23:39.059Z,64.37
2023-02-24T03:26:19.344Z,64.32
2023-02-24T03:28:59.610Z,63.67
2023-02-24T03:31:33.323Z,64.22
2023-02-24T03:34:11.218Z,64.21
2023-02-24T03:36:42.454Z,64.47
2023-02-24T03:39:18.109Z,64.73
2023-02-24T03:41:54.286Z,64.05
2023-02-24T03:44:42.038Z,64.80
2023-02-24T03:47:10.862Z,64.97
2023-02-24T03:49:43.512Z,64.05
2023-02-24T03:52:22.923Z,63.73
2023-02-24T03:55:06.621Z,64.31
2023-02-24T03:57:55.382Z,63.76
2023-02-24T04:00:34.399Z,63.28
2023-02-24T04:03:15.330Z,63.88
2023-02-24T04:05:58.998Z,63.79
2023-02-24T04:08:39.630Z,64.20
2023-02-24T04:11:14.656Z,64.29
2023-02-24T04:13:53.248Z,64.96
2023-02-24T04:16:33.000Z,64.24
2023-02-24T04:19:08.793Z,64.72
2023-02-24T04:21:39.172Z,65.17
2023-02-24T04:24:15.988Z,64.69
2023-02-24T04:26:47.001Z,65.30
2023-02-24T04:29:23.132Z,65.14
2023-02-24T04:31:56.064Z,65.20
2023-02-24T04:34:24.923Z,65.98
2023-02-24T04:36:52.937Z,65.82
2023-02-24T04:39:25.966Z,65.17
2023-02-24T04:41:57.847Z,65.84
2023-02-24T04:44:28.226Z,66.30
2023-02-24T04:46:56.856Z,66.14
2023-02-24T04:49:32.743Z,66.72
2023-02-24T04:52:03.704Z,67.61
2023-02-24T04:54:34.970Z,67.24
2023-02-24T04:57:06.928Z,67.31
2023-02-24T04:59:35.366Z,67.04
2023-02-24T05:02:04.023Z,67.71
2023-02-24T05:04:36.234Z,68.14
2023-02-24T05:07:04.201Z,68.52
2023-02-24T05:09:33.566Z,68.51
2023-02-24T05:12:01.640Z,69.38
2023-02-24T05:14:31.062Z,69.43
2023-02-24T05:17:00.423Z,69.40
2023-02-24T05:19:46.405Z,69.72
2023-02-24T05:22:14.532Z,70.51
2023-02-24T05:24:44.425Z,69.88
2023-02-24T05:27:12.422Z,70.30
2023-02-24T05:29:40.525Z,69.49
2023-02-24T05:32:08.739Z,69.25
2023-02-24T05:34:39.228Z,69.72
2023-02-24T05:37:10.706Z,69.56
2023-02-24T05:39:38.934Z,69.97
2023-02-24T05:42:08.298Z,70.80
2023-02-24T05:44:37.016Z,69.86
2023-02-24T05:47:05.926Z,69.74
2023-02-24T05:49:35.651Z,70.55
2023-02-24T05:52:09.064Z,70.51
2023-02-24T05:54:39.441Z,70.87
2023-02-24T05:57:12.197Z,70.81
2023-02-24T05:59:41.013Z,69.91
2023-02-24T06:02:12.527Z,69.77
2023-02-24T06:04:46.779Z,70.46
2023-02-24T06:07:19.401Z,71.38
2023-02-24T06:09:50.161Z,71.77
2023-02-24T06:12:19.914Z,72.17
2023-02-24T06:14:47.857Z,73.03
2023-02-24T06:17:17.054Z,74.14
2023-02-24T06:19:45.304Z,75.45
2023-02-24T06:22:15.819Z,75.57
2023-02-24T06:24:45.453Z,76.84
2023-02-24T06:27:17.876Z,77.60
2023-02-24T06:29:50.215Z,78.57
2023-02-24T06:32:19.056Z,79.21
2023-02-24T06:34:47.367Z,79.21
2023-02-24T06:37:16.566Z,80.40
2023-02-24T06:39:44.487Z,81.35
2023-02-24T06:42:13.932Z,81.31
2023-02-24T06:44:42.797Z,82.46
2023-02-24T06:47:16.487Z,82.72
2023-02-24T06:49:44.739Z,83.77
2023-02-24T06:52:18.899Z,84.23
2023-02-24T06:54:49.663Z,83.58
2023-02-24T06:57:18.007Z,84.37
2023-02-24T06:59:46.337Z,84.61
2023-02-24T07:02:17.679Z,84.36
2023-02-24T07:04:50.668Z,83.67
2023-02-24T07:07:19.596Z,83.37
2023-02-24T07:09:47.504Z,84.46
2023-02-24T07:12:21.051Z,85.59
2023-02-24T07:14:50.521Z,85.14
2023-02-24T07:17:21.083Z,84.55
2023-02-24T07:19:48.950Z,85.27
2023-02-24T07:22:17.616Z,85.66
2023-02-24T07:24:46.499Z,85.27
2023-02-24T07:27:22.113Z,85.47
2023-02-24T07:29:53.334Z,85.34
2023-02-24T07:32:25.561Z,86.15
2023-02-24T07:34:54.199Z,86.40
2023-02-24T07:37:24.329Z,85.93
2023-02-24T07:39:54.585Z,87.00
2023-02-24T07:42:22.653Z,86.66
2023-02-24T07:44:55.938Z,87.15
2023-02-24T07:47:26.611Z,86.91
2023-02-24T07:49:57.215Z,86.15
2023-02-24T07:52:25.289Z,87.54
2023-02-24T07:54:55.154Z,87.68
2023-02-24T07:57:25.187Z,87.66
2023-02-24T07:59:54.141Z,89.28
2023-02-24T08:02:23.908Z,89.12
2023-02-24T08:04:54.285Z,89.07
2023-02-24T08:07:25.640Z,87.93
2023-02-24T08:10:11.042Z,88.40
2023-02-24T08:12:42.685Z,87.83
2023-02-24T08:15:18.369Z,87.74
2023-02-24T08:17:48.384Z,88.13
2023-02-24T08:20:25.228Z,88.38
2023-02-24T08:22:55.144Z,87.99
2023-02-24T08:25:35.835Z,87.38
2023-02-24T08:28:09.270Z,86.45
2023-02-24T08:30:40.831Z,86.89
2023-02-24T08:33:10.705Z,87.67
2023-02-24T08:35:45.415Z,87.65
2023-02-24T08:38:16.737Z,87.87
2023-02-24T08:40:55.070Z,87.52
2023-02-24T08:43:34.431Z,87.24
2023-02-24T08:46:18.529Z,87.58
2023-02-24T08:48:49.210Z,87.30
2023-02-24T08:51:23.213Z,87.16
2023-02-24T08:53:53.857Z,87.89
2023-02-24T08:56:27.178Z,86.45
2023-02-24T08:59:05.659Z,87.67
2023-02-24T09:01:35.761Z,87.33
2023-02-24T09:04:06.346Z,87.85
2023-02-24T09:06:44.218Z,87.82
2023-02-24T09:09:21.399Z,87.21
2023-02-24T09:11:56.545Z,88.36
2023-02-24T09:14:28.515Z,88.12
2023-02-24T09:17:05.942Z,88.81
2023-02-24T09:19:55.930Z,88.51
2023-02-24T09:22:33.096Z,88.89
2023-02-24T09:25:20.818Z,89.09
2023-02-24T09:27:52.645Z,88.96
2023-02-24T09:30:37.817Z,89.06
2023-02-24T09:33:18.005Z,88.37
2023-02-24T09:35:51.572Z,87.97
2023-02-24T09:38:46.569Z,88.68
2023-02-24T09:41:31.702Z,88.54
2023-02-24T09:44:08.093Z,87.07
2023-02-24T09:46:45.383Z,86.20
2023-02-24T09:49:18.324Z,86.63
2023-02-24T09:51:53.378Z,87.90
2023-02-24T09:54:25.654Z,87.72
2023-02-24T09:57:08.356Z,88.41
2023-02-24T09:59:51.214Z,88.11
2023-02-24T10:02:32.955Z,88.32
2023-02-24T10:05:11.829Z,87.76
2023-02-24T10:07:47.415Z,88.80
2023-02-24T10:10:28.082Z,86.76
2023-02-24T10:13:13.221Z,86.74
2023-02-24T10:15:59.350Z,87.29
2023-02-24T10:18:33.588Z,88.13
2023-02-24T10:21:15.534Z,88.17
2023-02-24T10:24:05.602Z,87.96
2023-02-24T10:27:00.738Z,89.44
2023-02-24T10:29:46.626Z,89.45
2023-02-24T10:32:25.283Z,88.39
2023-02-24T10:34:54.858Z,88.24
2023-02-24T10:37:29.516Z,88.31
2023-02-24T10:39:59.918Z,88.89
2023-02-24T10:42:32.715Z,87.72
2023-02-24T10:45:19.376Z,86.84
2023-02-24T10:47:57.288Z,87.88
2023-02-24T10:50:32.248Z,88.11
2023-02-24T10:53:34.577Z,88.17
2023-02-24T10:56:41.485Z,87.97
2023-02-24T10:59:32.412Z,88.08
2023-02-24T11:02:06.869Z,87.77
2023-02-24T11:05:16.006Z,88.00
2023-02-24T11:07:53.915Z,86.75
2023-02-24T11:10:34.257Z,87.58
2023-02-24T11:13:20.500Z,86.67
2023-02-24T11:16:10.046Z,86.93
2023-02-24T11:18:40.049Z,87.62
2023-02-24T11:21:10.829Z,87.86
2023-02-24T11:23:43.354Z,87.03
2023-02-24T11:26:23.253Z,86.90
2023-02-24T11:29:17.485Z,87.92
2023-02-24T11:31:58.610Z,87.14
2023-02-24T11:34:35.617Z,85.42
2023-02-24T11:37:16.049Z,84.92
2023-02-24T11:39:54.557Z,86.11
2023-02-24T11:42:27.135Z,85.12
2023-02-24T11:45:03.195Z,84.70
2023-02-24T11:47:41.665Z,85.67
2023-02-24T11:50:43.718Z,85.11
2023-02-24T11:53:21.029Z,87.24
2023-02-24T11:55:54.551Z,87.30
2023-02-24T11:58:29.942Z,86.83
2023-02-24T12:01:02.856Z,86.05
2023-02-24T12:03:38.020Z,86.47
2023-02-24T12:06:15.341Z,84.88
2023-02-24T12:08:46.964Z,85.81
2023-02-24T12:11:24.355Z,85.15
2023-02-24T12:14:05.070Z,85.83
2023-02-24T12:16:37.901Z,85.56
2023-02-24T12:19:18.647Z,85.21
2023-02-24T12:21:52.745Z,84.09
2023-02-24T12:24:21.445Z,84.50
2023-02-24T12:27:03.209Z,84.67
2023-02-24T12:29:52.536Z,82.77
2023-02-24T12:32:30.360Z,84.16
2023-02-24T12:35:09.833Z,83.68
2023-02-24T12:37:56.276Z,84.63
2023-02-24T12:40:36.949Z,85.24
2023-02-24T12:43:16.015Z,85.71
2023-02-24T12:45:53.671Z,86.32
2023-02-24T12:48:37.055Z,86.66
2023-02-24T12:51:11.276Z,87.18
2023-02-24T12:53:46.963Z,87.40
2023-02-24T12:56:22.385Z,86.39
2023-02-24T12:58:53.846Z,87.34
2023-02-24T13:01:26.822Z,86.49
2023-02-24T13:04:14.472Z,86.64
2023-02-24T13:06:58.905Z,86.13
2023-02-24T13:09:39.474Z,86.76
2023-02-24T13:12:16.860Z,86.67
2023-02-24T13:14:46.496Z,84.03
2023-02-24T13:17:21.743Z,84.80
2023-02-24T13:19:53.457Z,83.52
2023-02-24T13:22:27.049Z,84.34
2023-02-24T13:25:02.842Z,85.24
2023-02-24T13:27:36.896Z,83.20
2023-02-24T13:30:24.609Z,84.15
2023-02-24T13:33:03.639Z,85.56
2023-02-24T13:35:37.070Z,86.64
2023-02-24T13:38:36.881Z,86.81
2023-02-24T13:41:20.970Z,86.13
2023-02-24T13:43:58.163Z,86.52
2023-02-24T13:46:28.456Z,86.16
2023-02-24T13:49:18.977Z,85.56
2023-02-24T13:52:03.714Z,86.77
2023-02-24T13:54:59.430Z,85.20
2023-02-24T13:57:46.592Z,85.50
2023-02-24T14:00:26.552Z,85.35
2023-02-24T14:02:55.517Z,83.91
2023-02-24T14:05:28.003Z,82.77
2023-02-24T14:07:57.453Z,81.84
2023-02-24T14:10:29.641Z,80.28
2023-02-24T14:13:06.544Z,80.02
2023-02-24T14:15:35.785Z,79.43
2023-02-24T14:18:06.426Z,79.81
2023-02-24T14:20:35.500Z,78.67
2023-02-24T14:23:04.299Z,79.40
2023-02-24T14:25:39.444Z,79.75
2023-02-24T14:28:07.707Z,77.25
2023-02-24T14:30:38.337Z,77.01
2023-02-24T14:33:08.567Z,76.46
2023-02-24T14:35:40.391Z,77.47
2023-02-24T14:38:28.148Z,79.00
2023-02-24T14:40:57.632Z,79.71
2023-02-24T14:43:25.790Z,79.82
2023-02-24T14:45:55.131Z,78.54
2023-02-24T14:48:26.676Z,79.14
2023-02-24T14:50:58.294Z,78.13
2023-02-24T14:53:30.898Z,78.25
2023-02-24T14:56:05.838Z,78.11
2023-02-24T14:58:42.059Z,76.51
2023-02-24T15:01:19.466Z,77.00
2023-02-24T15:03:50.388Z,77.69
2023-02-24T15:06:23.842Z,77.69
2023-02-24T15:08:59.356Z,77.03
2023-02-24T15:11:31.218Z,77.06
2023-02-24T15:14:02.970Z,77.55
2023-02-24T15:16:40.415Z,78.04
2023-02-24T15:19:26.345Z,77.55
2023-02-24T15:21:55.136Z,79.29
2023-02-24T15:24:27.471Z,78.42
2023-02-24T15:27:00.927Z,78.34
2023-02-24T15:29:30.933Z,78.42
2023-02-24T15:32:01.277Z,77.78
2023-02-24T15:34:32.181Z,78.06
2023-02-24T15:37:04.517Z,77.47
2023-02-24T15:39:36.973Z,78.84
2023-02-24T15:42:15.148Z,78.32
2023-02-24T15:44:52.998Z,78.48
2023-02-24T15:47:24.755Z,78.28
2023-02-24T15:49:52.798Z,78.37
2023-02-24T15:52:24.439Z,77.77
2023-02-24T15:54:53.432Z,78.46
2023-02-24T15:57:23.042Z,78.80
2023-02-24T15:59:51.126Z,78.56
2023-02-24T16:02:21.308Z,79.00
2023-02-24T16:04:50.619Z,78.65
2023-02-24T16:07:22.637Z,79.49
2023-02-24T16:09:55.582Z,79.43
2023-02-24T16:12:29.435Z,79.65
2023-02-24T16:15:03.254Z,80.55
2023-02-24T16:17:34.656Z,80.31
2023-02-24T16:20:08.514Z,80.66
2023-02-24T16:22:36.877Z,79.78
2023-02-24T16:25:05.180Z,79.67
2023-02-24T16:27:35.156Z,79.94
2023-02-24T16:30:03.260Z,78.01
2023-02-24T16:32:31.303Z,78.55
2023-02-24T16:34:59.350Z,78.29
2023-02-24T16:37:30.181Z,78.94
2023-02-24T16:39:59.733Z,78.96
2023-02-24T16:42:27.695Z,79.72
2023-02-24T16:44:57.064Z,79.57
2023-02-24T16:47:26.366Z,79.54
2023-02-24T16:49:59.160Z,80.14
2023-02-24T16:52:28.554Z,80.20
2023-02-24T16:54:56.574Z,81.03
2023-02-24T16:57:25.877Z,80.52
2023-02-24T16:59:53.746Z,81.32
2023-02-24T17:02:26.470Z,81.00
2023-02-24T17:04:54.636Z,80.47
2023-02-24T17:07:42.704Z,79.90
2023-02-24T17:10:11.551Z,80.33
2023-02-24T17:12:39.520Z,80.00
2023-02-24T17:15:10.191Z,80.53
2023-02-24T17:17:40.297Z,79.61
2023-02-24T17:20:09.546Z,80.27
2023-02-24T17:22:37.835Z,79.55
2023-02-24T17:25:07.256Z,79.76
2023-02-24T17:27:35.266Z,79.22
2023-02-24T17:30:16.272Z,78.81
2023-02-24T17:32:50.116Z,77.87
2023-02-24T17:35:18.670Z,78.55
2023-02-24T17:37:46.599Z,78.69
2023-02-24T17:40:14.993Z,78.26
2023-02-24T17:42:44.100Z,77.63
2023-02-24T17:45:14.314Z,78.50
2023-02-24T17:47:49.850Z,77.37
2023-02-24T17:50:17.908Z,77.96
2023-02-24T17:52:45.900Z,78.12
2023-02-24T17:55:16.836Z,79.15
2023-02-24T17:57:45.722Z,78.67
2023-02-24T18:00:15.727Z,77.97
2023-02-24T18:02:43.814Z,79.59
2023-02-24T18:05:13.316Z,78.92
2023-02-24T18:07:41.214Z,79.20
2023-02-24T18:10:09.874Z,79.24
2023-02-24T18:12:37.992Z,78.78
2023-02-24T18:15:09.136Z,79.53
2023-02-24T18:17:37.725Z,79.77
2023-02-24T18:20:06.409Z,79.71
2023-02-24T18:22:35.984Z,79.44
2023-02-24T18:25:04.132Z,79.47
2023-02-24T18:27:32.041Z,79.25
2023-02-24T18:29:59.929Z,79.74
2023-02-24T18:32:28.470Z,80.12
2023-02-24T18:34:56.549Z,80.48
2023-02-24T18:37:24.437Z,79.46
2023-02-24T18:39:54.134Z,79.78
2023-02-24T18:42:22.064Z,80.39
2023-02-24T18:44:50.077Z,80.94
2023-02-24T18:47:20.140Z,81.53
2023-02-24T18:49:48.046Z,81.59
2023-02-24T18:52:15.927Z,81.43
2023-02-24T18:54:43.864Z,81.26
2023-02-24T18:57:15.964Z,81.47
2023-02-24T18:59:44.139Z,81.10
2023-02-24T19:02:13.841Z,81.37
2023-02-24T19:04:43.919Z,80.72
2023-02-24T19:07:12.048Z,80.45
2023-02-24T19:09:41.710Z,78.93
2023-02-24T19:12:10.333Z,78.98
2023-02-24T19:14:39.788Z,78.72
2023-02-24T19:17:08.204Z,78.73
2023-02-24T19:19:36.138Z,78.22
2023-02-24T19:22:04.565Z,77.74
2023-02-24T19:24:32.503Z,77.53
2023-02-24T19:27:00.831Z,77.88
2023-02-24T19:29:28.843Z,78.43
2023-02-24T19:31:58.377Z,78.82
2023-02-24T19:34:26.319Z,79.13
2023-02-24T19:36:54.328Z,79.46
2023-02-24T19:39:22.248Z,78.89
2023-02-24T19:41:50.213Z,79.63
2023-02-24T19:44:18.390Z,79.12
2023-02-24T19:46:46.209Z,79.17
2023-02-24T19:49:15.512Z,79.49
2023-02-24T19:51:47.131Z,79.59
2023-02-24T19:54:16.245Z,79.78
2023-02-24T19:56:44.168Z,80.19
2023-02-24T19:59:12.612Z,79.89
2023-02-24T20:01:40.665Z,79.71
2023-02-24T20:04:08.577Z,80.07
2023-02-24T20:06:40.148Z,79.71
2023-02-24T20:09:10.649Z,79.25
2023-02-24T20:11:39.843Z,79.17
2023-02-24T20:14:08.929Z,79.21
2023-02-24T20:16:38.587Z,79.65
2023-02-24T20:19:09.272Z,79.65
2023-02-24T20:21:39.778Z,79.69
2023-02-24T20:24:13.222Z,80.07
2023-02-24T20:26:42.738Z,79.37
2023-02-24T20:29:11.560Z,78.52
2023-02-24T20:31:40.115Z,79.43
2023-02-24T20:34:09.299Z,78.97
2023-02-24T20:36:39.346Z,78.50
2023-02-24T20:39:07.828Z,79.04
2023-02-24T20:41:35.907Z,78.88
2023-02-24T20:44:04.084Z,79.76
2023-02-24T20:46:33.385Z,79.52
2023-02-24T20:49:04.366Z,80.81
2023-02-24T20:51:34.054Z,81.71
2023-02-24T20:54:03.516Z,81.56
2023-02-24T20:56:35.776Z,82.22
2023-02-24T20:59:06.791Z,81.83
2023-02-24T21:01:37.064Z,81.16
2023-02-24T21:04:06.804Z,81.41
2023-02-24T21:06:35.108Z,80.29
2023-02-24T21:09:06.714Z,80.17
2023-02-24T21:11:35.404Z,80.41
2023-02-24T21:14:04.259Z,79.24
2023-02-24T21:16:38.711Z,79.11
2023-02-24T21:19:06.622Z,80.08
2023-02-24T21:21:34.897Z,80.06
2023-02-24T21:24:04.383Z,79.38
2023-02-24T21:26:32.384Z,79.72
2023-02-24T21:29:00.549Z,79.03
2023-02-24T21:31:28.970Z,77.12
2023-02-24T21:33:57.417Z,76.56
2023-02-24T21:36:28.183Z,75.97
2023-02-24T21:38:56.543Z,75.43
2023-02-24T21:41:26.216Z,75.06
2023-02-24T21:43:55.960Z,74.49
2023-02-24T21:46:28.482Z,73.76
2023-02-24T21:48:57.183Z,73.54
2023-02-24T21:51:26.247Z,73.51
2023-02-24T21:53:56.143Z,71.32
2023-02-24T21:56:27.137Z,72.18
2023-02-24T21:58:58.408Z,72.26
2023-02-24T22:01:28.543Z,72.33
2023-02-24T22:03:58.053Z,72.17
2023-02-24T22:06:30.277Z,71.95
2023-02-24T22:08:59.638Z,71.15
2023-02-24T22:11:31.181Z,69.50
2023-02-24T22:13:59.559Z,69.42
2023-02-24T22:16:27.780Z,69.94
2023-02-24T22:18:56.827Z,69.51
2023-02-24T22:21:27.772Z,68.92
2023-02-24T22:23:58.333Z,69.25
2023-02-24T22:26:29.021Z,68.86
2023-02-24T22:28:59.233Z,67.79
2023-02-24T22:31:31.170Z,67.97
2023-02-24T22:33:59.734Z,68.09
2023-02-24T22:36:29.548Z,68.66
2023-02-24T22:38:59.293Z,67.52
2023-02-24T22:41:31.667Z,67.88
2023-02-24T22:44:00.220Z,67.77
2023-02-24T22:46:30.861Z,68.00
2023-02-24T22:48:59.658Z,69.11
2023-02-24T22:51:28.767Z,68.19
2023-02-24T22:53:58.786Z,69.03
2023-02-24T22:56:30.140Z,68.81
2023-02-24T22:59:00.734Z,69.03
2023-02-24T23:01:33.688Z,69.20
2023-02-24T23:04:02.853Z,70.11
2023-02-24T23:06:31.843Z,69.81
2023-02-24T23:09:02.070Z,70.03
2023-02-24T23:11:33.634Z,70.27
2023-02-24T23:14:03.472Z,70.67
2023-02-24T23:16:36.040Z,71.42
2023-02-24T23:19:07.471Z,71.39
2023-02-24T23:21:39.063Z,71.73
2023-02-24T23:24:10.996Z,71.61
2023-02-24T23:26:42.652Z,72.13
2023-02-24T23:29:11.714Z,72.01
2023-02-24T23:31:40.821Z,72.09
2023-02-24T23:34:10.812Z,71.86
2023-02-24T23:36:40.851Z,72.05
2023-02-24T23:39:09.574Z,71.91
2023-02-24T23:41:38.308Z,71.92
2023-02-24T23:44:08.651Z,72.24
2023-02-24T23:46:37.932Z,71.46
2023-02-24T23:49:06.430Z,71.58
2023-02-24T23:51:47.449Z,70.80
2023-02-24T23:54:16.528Z,70.86
2023-02-24T23:56:44.571Z,71.69
2023-02-24T23:59:13.833Z,71.23
